sensor_id;sensor_type;location;lat;lon;timestamp;P1;durP1;ratioP1;P2;durP2;ratioP2
43070;SDS011;36278;47.952;21.714;2022-08-21T00:02:16;8.25;;;3.80;;
43070;SDS011;36278;47.952;21.714;2022-08-21T00:04:44;9.63;;;4.22;;
43070;SDS011;36278;47.952;21.714;2022-08-21T00:07:10;10.63;;;4.20;;
43070;SDS011;36278;47.952;21.714;2022-08-21T00:09:36;10.30;;;4.15;;
43070;SDS011;36278;47.952;21.714;2022-08-21T00:12:02;11.07;;;3.88;;
43070;SDS011;36278;47.952;21.714;2022-08-21T00:14:30;8.50;;;4.10;;
43070;SDS011;36278;47.952;21.714;2022-08-21T00:16:55;7.68;;;4.10;;
43070;SDS011;36278;47.952;21.714;2022-08-21T00:19:21;7.32;;;4.45;;
43070;SDS011;36278;47.952;21.714;2022-08-21T00:21:50;9.55;;;4.40;;
43070;SDS011;36278;47.952;21.714;2022-08-21T00:24:19;9.45;;;4.05;;
43070;SDS011;36278;47.952;21.714;2022-08-21T00:26:46;14.80;;;4.55;;
43070;SDS011;36278;47.952;21.714;2022-08-21T00:29:12;7.05;;;4.20;;
43070;SDS011;36278;47.952;21.714;2022-08-21T00:31:38;8.48;;;4.63;;
43070;SDS011;36278;47.952;21.714;2022-08-21T00:34:04;12.82;;;4.93;;
43070;SDS011;36278;47.952;21.714;2022-08-21T00:36:30;8.10;;;4.90;;
43070;SDS011;36278;47.952;21.714;2022-08-21T00:38:56;8.27;;;4.47;;
43070;SDS011;36278;47.952;21.714;2022-08-21T00:41:21;9.43;;;4.75;;
43070;SDS011;36278;47.952;21.714;2022-08-21T00:43:48;6.75;;;4.20;;
43070;SDS011;36278;47.952;21.714;2022-08-21T00:46:15;11.23;;;5.40;;
43070;SDS011;36278;47.952;21.714;2022-08-21T00:48:41;11.02;;;4.72;;
43070;SDS011;36278;47.952;21.714;2022-08-21T00:51:08;7.18;;;4.60;;
43070;SDS011;36278;47.952;21.714;2022-08-21T00:53:40;6.72;;;4.25;;
43070;SDS011;36278;47.952;21.714;2022-08-21T00:56:10;11.35;;;5.20;;
43070;SDS011;36278;47.952;21.714;2022-08-21T00:58:38;10.05;;;5.43;;
43070;SDS011;36278;47.952;21.714;2022-08-21T01:01:07;10.88;;;5.05;;
43070;SDS011;36278;47.952;21.714;2022-08-21T01:03:33;11.18;;;4.70;;
43070;SDS011;36278;47.952;21.714;2022-08-21T01:06:01;8.60;;;4.38;;
43070;SDS011;36278;47.952;21.714;2022-08-21T01:08:28;9.30;;;4.93;;
43070;SDS011;36278;47.952;21.714;2022-08-21T01:10:54;11.63;;;5.38;;
43070;SDS011;36278;47.952;21.714;2022-08-21T01:13:22;8.45;;;4.82;;
43070;SDS011;36278;47.952;21.714;2022-08-21T01:15:50;10.30;;;5.32;;
43070;SDS011;36278;47.952;21.714;2022-08-21T01:18:18;7.93;;;5.03;;
43070;SDS011;36278;47.952;21.714;2022-08-21T01:21:20;9.43;;;5.32;;
43070;SDS011;36278;47.952;21.714;2022-08-21T01:23:43;11.45;;;4.85;;
43070;SDS011;36278;47.952;21.714;2022-08-21T01:26:10;9.15;;;5.22;;
43070;SDS011;36278;47.952;21.714;2022-08-21T01:28:42;9.82;;;5.03;;
43070;SDS011;36278;47.952;21.714;2022-08-21T01:31:13;9.55;;;4.43;;
43070;SDS011;36278;47.952;21.714;2022-08-21T01:33:40;11.68;;;5.28;;
43070;SDS011;36278;47.952;21.714;2022-08-21T01:36:06;8.75;;;4.38;;
43070;SDS011;36278;47.952;21.714;2022-08-21T01:38:31;11.80;;;5.25;;
43070;SDS011;36278;47.952;21.714;2022-08-21T01:40:58;10.90;;;5.50;;
43070;SDS011;36278;47.952;21.714;2022-08-21T01:43:23;9.57;;;5.13;;
43070;SDS011;36278;47.952;21.714;2022-08-21T01:45:49;12.65;;;5.10;;
43070;SDS011;36278;47.952;21.714;2022-08-21T01:48:15;13.32;;;4.90;;
43070;SDS011;36278;47.952;21.714;2022-08-21T01:50:40;8.85;;;5.25;;
43070;SDS011;36278;47.952;21.714;2022-08-21T01:53:06;14.25;;;5.45;;
43070;SDS011;36278;47.952;21.714;2022-08-21T01:55:31;14.77;;;5.32;;
43070;SDS011;36278;47.952;21.714;2022-08-21T01:57:57;8.48;;;5.88;;
43070;SDS011;36278;47.952;21.714;2022-08-21T02:00:24;11.93;;;5.47;;
43070;SDS011;36278;47.952;21.714;2022-08-21T02:02:49;10.63;;;5.15;;
43070;SDS011;36278;47.952;21.714;2022-08-21T02:05:15;12.23;;;5.20;;
43070;SDS011;36278;47.952;21.714;2022-08-21T02:07:43;9.05;;;4.93;;
43070;SDS011;36278;47.952;21.714;2022-08-21T02:10:13;12.55;;;4.95;;
43070;SDS011;36278;47.952;21.714;2022-08-21T02:12:41;12.88;;;5.55;;
43070;SDS011;36278;47.952;21.714;2022-08-21T02:15:06;9.73;;;5.30;;
43070;SDS011;36278;47.952;21.714;2022-08-21T02:17:43;12.02;;;5.85;;
43070;SDS011;36278;47.952;21.714;2022-08-21T02:20:22;13.68;;;5.85;;
43070;SDS011;36278;47.952;21.714;2022-08-21T02:22:53;10.82;;;5.93;;
43070;SDS011;36278;47.952;21.714;2022-08-21T02:25:19;13.82;;;5.55;;
43070;SDS011;36278;47.952;21.714;2022-08-21T02:27:47;14.80;;;5.97;;
43070;SDS011;36278;47.952;21.714;2022-08-21T02:30:15;13.07;;;5.85;;
43070;SDS011;36278;47.952;21.714;2022-08-21T02:32:51;12.48;;;5.50;;
43070;SDS011;36278;47.952;21.714;2022-08-21T02:35:17;10.40;;;5.43;;
43070;SDS011;36278;47.952;21.714;2022-08-21T02:37:51;14.38;;;5.70;;
43070;SDS011;36278;47.952;21.714;2022-08-21T02:40:20;11.00;;;5.72;;
43070;SDS011;36278;47.952;21.714;2022-08-21T02:42:48;8.95;;;6.30;;
43070;SDS011;36278;47.952;21.714;2022-08-21T02:45:14;11.68;;;5.78;;
43070;SDS011;36278;47.952;21.714;2022-08-21T02:47:40;13.57;;;5.80;;
43070;SDS011;36278;47.952;21.714;2022-08-21T02:50:12;9.45;;;5.90;;
43070;SDS011;36278;47.952;21.714;2022-08-21T02:52:38;12.88;;;6.32;;
43070;SDS011;36278;47.952;21.714;2022-08-21T02:55:03;13.02;;;6.00;;
43070;SDS011;36278;47.952;21.714;2022-08-21T02:57:29;10.02;;;5.70;;
43070;SDS011;36278;47.952;21.714;2022-08-21T02:59:57;11.95;;;6.18;;
43070;SDS011;36278;47.952;21.714;2022-08-21T03:02:23;17.80;;;6.15;;
43070;SDS011;36278;47.952;21.714;2022-08-21T03:04:48;12.13;;;6.10;;
43070;SDS011;36278;47.952;21.714;2022-08-21T03:07:14;10.23;;;5.95;;
43070;SDS011;36278;47.952;21.714;2022-08-21T03:09:40;11.80;;;6.28;;
43070;SDS011;36278;47.952;21.714;2022-08-21T03:12:05;12.07;;;6.63;;
43070;SDS011;36278;47.952;21.714;2022-08-21T03:14:31;13.38;;;6.65;;
43070;SDS011;36278;47.952;21.714;2022-08-21T03:16:56;13.10;;;6.25;;
43070;SDS011;36278;47.952;21.714;2022-08-21T03:19:22;11.07;;;6.25;;
43070;SDS011;36278;47.952;21.714;2022-08-21T03:21:47;14.38;;;6.63;;
43070;SDS011;36278;47.952;21.714;2022-08-21T03:24:13;11.32;;;5.95;;
43070;SDS011;36278;47.952;21.714;2022-08-21T03:26:38;16.00;;;7.03;;
43070;SDS011;36278;47.952;21.714;2022-08-21T03:29:03;15.13;;;7.65;;
43070;SDS011;36278;47.952;21.714;2022-08-21T03:31:30;13.18;;;6.13;;
43070;SDS011;36278;47.952;21.714;2022-08-21T03:33:57;14.13;;;6.53;;
43070;SDS011;36278;47.952;21.714;2022-08-21T03:36:23;11.32;;;6.57;;
43070;SDS011;36278;47.952;21.714;2022-08-21T03:38:49;11.88;;;6.35;;
43070;SDS011;36278;47.952;21.714;2022-08-21T03:41:15;17.00;;;7.00;;
43070;SDS011;36278;47.952;21.714;2022-08-21T03:43:40;8.13;;;6.28;;
43070;SDS011;36278;47.952;21.714;2022-08-21T03:46:06;13.10;;;6.60;;
43070;SDS011;36278;47.952;21.714;2022-08-21T03:48:32;9.50;;;6.65;;
43070;SDS011;36278;47.952;21.714;2022-08-21T03:50:58;14.40;;;6.80;;
43070;SDS011;36278;47.952;21.714;2022-08-21T03:53:24;11.40;;;6.95;;
43070;SDS011;36278;47.952;21.714;2022-08-21T03:55:50;15.00;;;7.35;;
43070;SDS011;36278;47.952;21.714;2022-08-21T03:58:18;13.75;;;6.85;;
43070;SDS011;36278;47.952;21.714;2022-08-21T04:00:46;11.77;;;6.43;;
43070;SDS011;36278;47.952;21.714;2022-08-21T04:03:15;13.25;;;6.53;;
43070;SDS011;36278;47.952;21.714;2022-08-21T04:05:41;15.90;;;6.70;;
43070;SDS011;36278;47.952;21.714;2022-08-21T04:08:08;14.80;;;7.88;;
43070;SDS011;36278;47.952;21.714;2022-08-21T04:10:35;12.77;;;6.75;;
43070;SDS011;36278;47.952;21.714;2022-08-21T04:13:02;11.00;;;7.05;;
43070;SDS011;36278;47.952;21.714;2022-08-21T04:15:28;17.13;;;7.55;;
43070;SDS011;36278;47.952;21.714;2022-08-21T04:17:54;14.00;;;7.53;;
43070;SDS011;36278;47.952;21.714;2022-08-21T04:20:20;15.57;;;7.05;;
43070;SDS011;36278;47.952;21.714;2022-08-21T04:22:46;13.70;;;7.45;;
43070;SDS011;36278;47.952;21.714;2022-08-21T04:25:13;14.15;;;7.30;;
43070;SDS011;36278;47.952;21.714;2022-08-21T04:27:40;11.57;;;6.93;;
43070;SDS011;36278;47.952;21.714;2022-08-21T04:30:05;15.70;;;7.78;;
43070;SDS011;36278;47.952;21.714;2022-08-21T04:32:34;15.05;;;7.30;;
43070;SDS011;36278;47.952;21.714;2022-08-21T04:35:04;14.98;;;7.25;;
43070;SDS011;36278;47.952;21.714;2022-08-21T04:37:33;14.45;;;8.18;;
43070;SDS011;36278;47.952;21.714;2022-08-21T04:39:59;12.95;;;7.28;;
43070;SDS011;36278;47.952;21.714;2022-08-21T04:42:25;13.60;;;7.63;;
43070;SDS011;36278;47.952;21.714;2022-08-21T04:44:52;18.42;;;7.32;;
43070;SDS011;36278;47.952;21.714;2022-08-21T04:47:18;14.80;;;7.15;;
43070;SDS011;36278;47.952;21.714;2022-08-21T04:49:44;14.27;;;6.97;;
43070;SDS011;36278;47.952;21.714;2022-08-21T04:52:10;15.85;;;7.30;;
43070;SDS011;36278;47.952;21.714;2022-08-21T04:54:38;12.68;;;7.78;;
43070;SDS011;36278;47.952;21.714;2022-08-21T04:57:06;14.15;;;8.13;;
43070;SDS011;36278;47.952;21.714;2022-08-21T04:59:38;17.52;;;8.18;;
43070;SDS011;36278;47.952;21.714;2022-08-21T05:02:07;16.35;;;7.60;;
43070;SDS011;36278;47.952;21.714;2022-08-21T05:04:36;14.05;;;7.45;;
43070;SDS011;36278;47.952;21.714;2022-08-21T05:07:10;14.23;;;7.93;;
43070;SDS011;36278;47.952;21.714;2022-08-21T05:09:41;11.23;;;7.32;;
43070;SDS011;36278;47.952;21.714;2022-08-21T05:12:07;11.48;;;7.15;;
43070;SDS011;36278;47.952;21.714;2022-08-21T05:14:33;11.25;;;7.07;;
43070;SDS011;36278;47.952;21.714;2022-08-21T05:16:58;17.52;;;7.28;;
43070;SDS011;36278;47.952;21.714;2022-08-21T05:19:24;16.20;;;7.93;;
43070;SDS011;36278;47.952;21.714;2022-08-21T05:21:51;19.00;;;8.15;;
43070;SDS011;36278;47.952;21.714;2022-08-21T05:24:16;14.90;;;7.40;;
43070;SDS011;36278;47.952;21.714;2022-08-21T05:26:43;11.48;;;7.63;;
43070;SDS011;36278;47.952;21.714;2022-08-21T05:29:09;14.82;;;7.60;;
43070;SDS011;36278;47.952;21.714;2022-08-21T05:31:36;12.00;;;7.68;;
43070;SDS011;36278;47.952;21.714;2022-08-21T05:34:02;16.73;;;7.47;;
43070;SDS011;36278;47.952;21.714;2022-08-21T05:36:28;13.55;;;7.75;;
43070;SDS011;36278;47.952;21.714;2022-08-21T05:38:54;10.13;;;7.03;;
43070;SDS011;36278;47.952;21.714;2022-08-21T05:41:19;14.88;;;7.07;;
43070;SDS011;36278;47.952;21.714;2022-08-21T05:43:45;14.73;;;7.82;;
43070;SDS011;36278;47.952;21.714;2022-08-21T05:46:10;12.50;;;7.40;;
43070;SDS011;36278;47.952;21.714;2022-08-21T05:48:36;11.02;;;7.88;;
43070;SDS011;36278;47.952;21.714;2022-08-21T05:51:06;13.57;;;7.45;;
43070;SDS011;36278;47.952;21.714;2022-08-21T05:53:33;11.30;;;7.35;;
43070;SDS011;36278;47.952;21.714;2022-08-21T05:55:59;13.10;;;7.78;;
43070;SDS011;36278;47.952;21.714;2022-08-21T05:58:25;13.82;;;7.30;;
43070;SDS011;36278;47.952;21.714;2022-08-21T06:00:50;13.32;;;7.85;;
43070;SDS011;36278;47.952;21.714;2022-08-21T06:03:22;15.57;;;7.68;;
43070;SDS011;36278;47.952;21.714;2022-08-21T06:05:49;15.77;;;7.18;;
43070;SDS011;36278;47.952;21.714;2022-08-21T06:08:15;15.77;;;8.18;;
43070;SDS011;36278;47.952;21.714;2022-08-21T06:10:42;14.90;;;8.30;;
43070;SDS011;36278;47.952;21.714;2022-08-21T06:13:08;15.10;;;8.07;;
43070;SDS011;36278;47.952;21.714;2022-08-21T06:15:33;13.43;;;8.07;;
43070;SDS011;36278;47.952;21.714;2022-08-21T06:17:59;16.35;;;8.70;;
43070;SDS011;36278;47.952;21.714;2022-08-21T06:20:25;13.40;;;7.57;;
43070;SDS011;36278;47.952;21.714;2022-08-21T06:22:51;14.45;;;8.55;;
43070;SDS011;36278;47.952;21.714;2022-08-21T06:25:17;14.02;;;7.43;;
43070;SDS011;36278;47.952;21.714;2022-08-21T06:27:43;12.05;;;6.82;;
43070;SDS011;36278;47.952;21.714;2022-08-21T06:30:09;20.58;;;8.43;;
43070;SDS011;36278;47.952;21.714;2022-08-21T06:32:34;15.55;;;8.00;;
43070;SDS011;36278;47.952;21.714;2022-08-21T06:35:01;13.52;;;7.65;;
43070;SDS011;36278;47.952;21.714;2022-08-21T06:37:27;12.15;;;7.70;;
43070;SDS011;36278;47.952;21.714;2022-08-21T06:39:52;11.35;;;7.13;;
43070;SDS011;36278;47.952;21.714;2022-08-21T06:42:18;15.32;;;7.88;;
43070;SDS011;36278;47.952;21.714;2022-08-21T06:44:43;10.10;;;7.30;;
43070;SDS011;36278;47.952;21.714;2022-08-21T06:47:09;16.15;;;7.47;;
43070;SDS011;36278;47.952;21.714;2022-08-21T06:49:35;13.73;;;6.70;;
43070;SDS011;36278;47.952;21.714;2022-08-21T06:52:01;13.57;;;7.45;;
43070;SDS011;36278;47.952;21.714;2022-08-21T06:54:27;15.60;;;6.47;;
43070;SDS011;36278;47.952;21.714;2022-08-21T06:56:52;15.77;;;7.60;;
43070;SDS011;36278;47.952;21.714;2022-08-21T06:59:18;15.43;;;7.25;;
43070;SDS011;36278;47.952;21.714;2022-08-21T07:01:43;13.55;;;7.10;;
43070;SDS011;36278;47.952;21.714;2022-08-21T07:04:09;12.32;;;6.30;;
43070;SDS011;36278;47.952;21.714;2022-08-21T07:06:35;11.10;;;5.97;;
43070;SDS011;36278;47.952;21.714;2022-08-21T07:09:01;11.82;;;6.38;;
43070;SDS011;36278;47.952;21.714;2022-08-21T07:11:28;12.23;;;6.80;;
43070;SDS011;36278;47.952;21.714;2022-08-21T07:13:53;11.60;;;6.18;;
43070;SDS011;36278;47.952;21.714;2022-08-21T07:16:21;12.38;;;6.60;;
43070;SDS011;36278;47.952;21.714;2022-08-21T07:18:47;15.60;;;6.60;;
43070;SDS011;36278;47.952;21.714;2022-08-21T07:21:13;10.93;;;6.53;;
43070;SDS011;36278;47.952;21.714;2022-08-21T07:23:41;15.40;;;7.50;;
43070;SDS011;36278;47.952;21.714;2022-08-21T07:26:09;10.07;;;6.13;;
43070;SDS011;36278;47.952;21.714;2022-08-21T07:28:34;11.63;;;6.50;;
43070;SDS011;36278;47.952;21.714;2022-08-21T07:31:01;13.65;;;6.72;;
43070;SDS011;36278;47.952;21.714;2022-08-21T07:33:28;11.82;;;6.18;;
43070;SDS011;36278;47.952;21.714;2022-08-21T07:35:55;10.60;;;6.50;;
43070;SDS011;36278;47.952;21.714;2022-08-21T07:38:21;13.23;;;6.97;;
43070;SDS011;36278;47.952;21.714;2022-08-21T07:40:48;17.25;;;7.47;;
43070;SDS011;36278;47.952;21.714;2022-08-21T07:43:15;16.35;;;6.80;;
43070;SDS011;36278;47.952;21.714;2022-08-21T07:45:44;11.93;;;6.45;;
43070;SDS011;36278;47.952;21.714;2022-08-21T07:48:10;12.20;;;6.28;;
43070;SDS011;36278;47.952;21.714;2022-08-21T07:50:36;12.05;;;5.88;;
43070;SDS011;36278;47.952;21.714;2022-08-21T07:53:01;10.07;;;5.57;;
43070;SDS011;36278;47.952;21.714;2022-08-21T07:55:27;13.18;;;6.50;;
43070;SDS011;36278;47.952;21.714;2022-08-21T07:57:53;12.20;;;5.65;;
43070;SDS011;36278;47.952;21.714;2022-08-21T08:00:20;12.05;;;5.97;;
43070;SDS011;36278;47.952;21.714;2022-08-21T08:02:48;9.98;;;5.80;;
43070;SDS011;36278;47.952;21.714;2022-08-21T08:05:17;12.00;;;5.82;;
43070;SDS011;36278;47.952;21.714;2022-08-21T08:07:44;12.82;;;5.47;;
43070;SDS011;36278;47.952;21.714;2022-08-21T08:10:10;16.17;;;5.88;;
43070;SDS011;36278;47.952;21.714;2022-08-21T08:12:37;12.65;;;5.20;;
43070;SDS011;36278;47.952;21.714;2022-08-21T08:15:05;10.63;;;5.43;;
43070;SDS011;36278;47.952;21.714;2022-08-21T08:17:32;8.63;;;4.80;;
43070;SDS011;36278;47.952;21.714;2022-08-21T08:19:58;9.65;;;5.50;;
43070;SDS011;36278;47.952;21.714;2022-08-21T08:22:25;15.63;;;5.88;;
43070;SDS011;36278;47.952;21.714;2022-08-21T08:24:52;14.50;;;5.70;;
43070;SDS011;36278;47.952;21.714;2022-08-21T08:27:18;12.32;;;5.10;;
43070;SDS011;36278;47.952;21.714;2022-08-21T08:29:44;16.98;;;5.45;;
43070;SDS011;36278;47.952;21.714;2022-08-21T08:32:10;14.05;;;5.72;;
43070;SDS011;36278;47.952;21.714;2022-08-21T08:34:36;13.88;;;5.38;;
43070;SDS011;36278;47.952;21.714;2022-08-21T08:37:04;14.10;;;5.25;;
43070;SDS011;36278;47.952;21.714;2022-08-21T08:39:30;12.40;;;5.10;;
43070;SDS011;36278;47.952;21.714;2022-08-21T08:42:07;13.15;;;4.95;;
43070;SDS011;36278;47.952;21.714;2022-08-21T08:44:39;17.40;;;5.00;;
43070;SDS011;36278;47.952;21.714;2022-08-21T08:47:06;12.40;;;5.22;;
43070;SDS011;36278;47.952;21.714;2022-08-21T08:52:36;14.70;;;5.15;;
43070;SDS011;36278;47.952;21.714;2022-08-21T08:57:45;9.60;;;5.20;;
43070;SDS011;36278;47.952;21.714;2022-08-21T09:00:13;10.52;;;5.40;;
43070;SDS011;36278;47.952;21.714;2022-08-21T09:02:41;14.85;;;6.03;;
43070;SDS011;36278;47.952;21.714;2022-08-21T09:05:09;14.40;;;6.40;;
43070;SDS011;36278;47.952;21.714;2022-08-21T09:10:30;14.98;;;6.60;;
43070;SDS011;36278;47.952;21.714;2022-08-21T09:18:43;14.80;;;7.50;;
43070;SDS011;36278;47.952;21.714;2022-08-21T09:23:43;12.52;;;7.22;;
43070;SDS011;36278;47.952;21.714;2022-08-21T09:26:26;12.82;;;7.28;;
43070;SDS011;36278;47.952;21.714;2022-08-21T09:28:56;13.55;;;7.35;;
43070;SDS011;36278;47.952;21.714;2022-08-21T09:31:30;14.88;;;7.30;;
43070;SDS011;36278;47.952;21.714;2022-08-21T09:34:02;16.55;;;7.63;;
43070;SDS011;36278;47.952;21.714;2022-08-21T09:36:33;16.85;;;8.32;;
43070;SDS011;36278;47.952;21.714;2022-08-21T09:39:11;16.33;;;8.05;;
43070;SDS011;36278;47.952;21.714;2022-08-21T09:41:38;15.50;;;8.75;;
43070;SDS011;36278;47.952;21.714;2022-08-21T09:44:05;14.32;;;7.95;;
43070;SDS011;36278;47.952;21.714;2022-08-21T09:46:31;12.27;;;8.30;;
43070;SDS011;36278;47.952;21.714;2022-08-21T09:48:58;13.82;;;8.48;;
43070;SDS011;36278;47.952;21.714;2022-08-21T09:51:27;16.30;;;8.13;;
43070;SDS011;36278;47.952;21.714;2022-08-21T09:54:07;12.38;;;8.15;;
43070;SDS011;36278;47.952;21.714;2022-08-21T09:56:57;14.68;;;8.63;;
43070;SDS011;36278;47.952;21.714;2022-08-21T09:59:43;17.92;;;9.02;;
43070;SDS011;36278;47.952;21.714;2022-08-21T10:02:30;19.20;;;9.45;;
43070;SDS011;36278;47.952;21.714;2022-08-21T10:05:00;15.70;;;9.85;;
43070;SDS011;36278;47.952;21.714;2022-08-21T10:07:36;16.50;;;8.73;;
43070;SDS011;36278;47.952;21.714;2022-08-21T10:10:13;17.92;;;8.65;;
43070;SDS011;36278;47.952;21.714;2022-08-21T10:12:45;14.63;;;9.00;;
43070;SDS011;36278;47.952;21.714;2022-08-21T10:18:36;15.98;;;9.35;;
43070;SDS011;36278;47.952;21.714;2022-08-21T10:21:10;15.30;;;8.30;;
43070;SDS011;36278;47.952;21.714;2022-08-21T10:32:04;16.10;;;9.50;;
43070;SDS011;36278;47.952;21.714;2022-08-21T10:39:57;18.45;;;9.75;;
43070;SDS011;36278;47.952;21.714;2022-08-21T10:42:35;16.58;;;10.57;;
43070;SDS011;36278;47.952;21.714;2022-08-21T10:48:22;18.08;;;11.00;;
43070;SDS011;36278;47.952;21.714;2022-08-21T10:55:57;19.40;;;11.88;;
43070;SDS011;36278;47.952;21.714;2022-08-21T11:01:00;20.25;;;11.57;;
43070;SDS011;36278;47.952;21.714;2022-08-21T11:03:33;24.45;;;12.45;;
43070;SDS011;36278;47.952;21.714;2022-08-21T11:08:34;14.73;;;6.68;;
43070;SDS011;36278;47.952;21.714;2022-08-21T11:11:05;14.73;;;7.25;;
43070;SDS011;36278;47.952;21.714;2022-08-21T11:16:21;14.13;;;6.90;;
43070;SDS011;36278;47.952;21.714;2022-08-21T11:18:57;15.00;;;7.35;;
43070;SDS011;36278;47.952;21.714;2022-08-21T11:24:34;12.38;;;6.20;;
43070;SDS011;36278;47.952;21.714;2022-08-21T11:29:36;18.25;;;6.15;;
43070;SDS011;36278;47.952;21.714;2022-08-21T11:35:01;11.68;;;6.10;;
43070;SDS011;36278;47.952;21.714;2022-08-21T11:45:50;14.43;;;5.93;;
43070;SDS011;36278;47.952;21.714;2022-08-21T11:51:55;14.57;;;6.10;;
43070;SDS011;36278;47.952;21.714;2022-08-21T11:54:01;15.15;;;6.00;;
43070;SDS011;36278;47.952;21.714;2022-08-21T11:56:40;15.18;;;5.60;;
43070;SDS011;36278;47.952;21.714;2022-08-21T11:59:12;13.98;;;5.85;;
43070;SDS011;36278;47.952;21.714;2022-08-21T12:01:45;13.85;;;6.40;;
43070;SDS011;36278;47.952;21.714;2022-08-21T12:04:18;10.13;;;5.43;;
43070;SDS011;36278;47.952;21.714;2022-08-21T12:07:09;11.48;;;5.78;;
43070;SDS011;36278;47.952;21.714;2022-08-21T12:09:37;9.98;;;4.65;;
43070;SDS011;36278;47.952;21.714;2022-08-21T12:14:35;11.77;;;4.72;;
43070;SDS011;36278;47.952;21.714;2022-08-21T12:17:19;12.68;;;4.10;;
43070;SDS011;36278;47.952;21.714;2022-08-21T12:19:58;9.55;;;4.32;;
43070;SDS011;36278;47.952;21.714;2022-08-21T12:22:37;9.90;;;3.88;;
43070;SDS011;36278;47.952;21.714;2022-08-21T12:25:06;9.40;;;3.78;;
43070;SDS011;36278;47.952;21.714;2022-08-21T12:28:02;8.18;;;4.50;;
43070;SDS011;36278;47.952;21.714;2022-08-21T12:30:35;9.98;;;3.97;;
43070;SDS011;36278;47.952;21.714;2022-08-21T12:33:17;11.45;;;4.95;;
43070;SDS011;36278;47.952;21.714;2022-08-21T12:35:47;8.07;;;4.70;;
43070;SDS011;36278;47.952;21.714;2022-08-21T12:38:27;10.10;;;4.40;;
43070;SDS011;36278;47.952;21.714;2022-08-21T12:41:05;11.90;;;5.18;;
43070;SDS011;36278;47.952;21.714;2022-08-21T12:43:42;9.50;;;4.10;;
43070;SDS011;36278;47.952;21.714;2022-08-21T12:46:17;10.70;;;4.30;;
43070;SDS011;36278;47.952;21.714;2022-08-21T12:48:56;10.73;;;4.03;;
43070;SDS011;36278;47.952;21.714;2022-08-21T12:51:31;11.05;;;3.80;;
43070;SDS011;36278;47.952;21.714;2022-08-21T12:54:21;11.10;;;4.47;;
43070;SDS011;36278;47.952;21.714;2022-08-21T12:56:55;11.02;;;4.45;;
43070;SDS011;36278;47.952;21.714;2022-08-21T12:59:26;13.02;;;4.03;;
43070;SDS011;36278;47.952;21.714;2022-08-21T13:01:52;9.35;;;3.67;;
43070;SDS011;36278;47.952;21.714;2022-08-21T13:04:35;8.20;;;3.20;;
43070;SDS011;36278;47.952;21.714;2022-08-21T13:07:06;14.20;;;4.05;;
43070;SDS011;36278;47.952;21.714;2022-08-21T13:09:36;11.98;;;4.13;;
43070;SDS011;36278;47.952;21.714;2022-08-21T13:12:16;9.23;;;3.55;;
43070;SDS011;36278;47.952;21.714;2022-08-21T13:14:44;9.75;;;3.63;;
43070;SDS011;36278;47.952;21.714;2022-08-21T13:17:18;8.20;;;3.85;;
43070;SDS011;36278;47.952;21.714;2022-08-21T13:19:55;9.52;;;4.03;;
43070;SDS011;36278;47.952;21.714;2022-08-21T13:22:22;10.40;;;3.80;;
43070;SDS011;36278;47.952;21.714;2022-08-21T13:24:49;8.95;;;3.75;;
43070;SDS011;36278;47.952;21.714;2022-08-21T13:27:16;8.52;;;3.63;;
43070;SDS011;36278;47.952;21.714;2022-08-21T13:29:44;6.47;;;4.00;;
43070;SDS011;36278;47.952;21.714;2022-08-21T13:32:13;8.10;;;3.83;;
43070;SDS011;36278;47.952;21.714;2022-08-21T13:34:50;9.30;;;4.93;;
43070;SDS011;36278;47.952;21.714;2022-08-21T13:37:16;12.40;;;4.32;;
43070;SDS011;36278;47.952;21.714;2022-08-21T13:39:47;11.52;;;4.38;;
43070;SDS011;36278;47.952;21.714;2022-08-21T13:42:14;9.43;;;4.47;;
43070;SDS011;36278;47.952;21.714;2022-08-21T13:44:41;9.90;;;4.30;;
43070;SDS011;36278;47.952;21.714;2022-08-21T13:47:10;9.38;;;3.78;;
43070;SDS011;36278;47.952;21.714;2022-08-21T13:49:39;10.43;;;4.18;;
43070;SDS011;36278;47.952;21.714;2022-08-21T13:52:23;7.10;;;3.40;;
43070;SDS011;36278;47.952;21.714;2022-08-21T13:54:55;7.05;;;3.95;;
43070;SDS011;36278;47.952;21.714;2022-08-21T13:57:27;10.15;;;4.18;;
43070;SDS011;36278;47.952;21.714;2022-08-21T14:00:11;12.13;;;3.72;;
43070;SDS011;36278;47.952;21.714;2022-08-21T14:02:41;8.38;;;4.28;;
43070;SDS011;36278;47.952;21.714;2022-08-21T14:05:14;10.57;;;3.70;;
43070;SDS011;36278;47.952;21.714;2022-08-21T14:07:50;11.15;;;3.72;;
43070;SDS011;36278;47.952;21.714;2022-08-21T14:10:21;7.63;;;4.00;;
43070;SDS011;36278;47.952;21.714;2022-08-21T14:12:58;7.05;;;4.00;;
43070;SDS011;36278;47.952;21.714;2022-08-21T14:15:31;9.15;;;3.70;;
43070;SDS011;36278;47.952;21.714;2022-08-21T14:18:14;6.40;;;3.70;;
43070;SDS011;36278;47.952;21.714;2022-08-21T14:20:42;7.75;;;3.90;;
43070;SDS011;36278;47.952;21.714;2022-08-21T14:23:08;9.45;;;3.33;;
43070;SDS011;36278;47.952;21.714;2022-08-21T14:25:42;11.52;;;3.80;;
43070;SDS011;36278;47.952;21.714;2022-08-21T14:30:57;9.27;;;4.03;;
43070;SDS011;36278;47.952;21.714;2022-08-21T14:33:35;10.65;;;4.30;;
43070;SDS011;36278;47.952;21.714;2022-08-21T14:36:00;9.35;;;3.83;;
43070;SDS011;36278;47.952;21.714;2022-08-21T14:38:27;10.13;;;4.10;;
43070;SDS011;36278;47.952;21.714;2022-08-21T14:40:54;12.60;;;4.43;;
43070;SDS011;36278;47.952;21.714;2022-08-21T14:43:22;10.60;;;4.10;;
43070;SDS011;36278;47.952;21.714;2022-08-21T14:45:50;7.25;;;4.43;;
43070;SDS011;36278;47.952;21.714;2022-08-21T14:48:15;12.05;;;4.20;;
43070;SDS011;36278;47.952;21.714;2022-08-21T14:50:41;11.13;;;3.53;;
43070;SDS011;36278;47.952;21.714;2022-08-21T14:53:07;10.95;;;4.20;;
43070;SDS011;36278;47.952;21.714;2022-08-21T14:55:32;10.90;;;5.05;;
43070;SDS011;36278;47.952;21.714;2022-08-21T14:58:18;8.77;;;4.30;;
43070;SDS011;36278;47.952;21.714;2022-08-21T15:00:44;8.07;;;4.47;;
43070;SDS011;36278;47.952;21.714;2022-08-21T15:03:09;9.23;;;4.10;;
43070;SDS011;36278;47.952;21.714;2022-08-21T15:05:35;7.97;;;4.00;;
43070;SDS011;36278;47.952;21.714;2022-08-21T15:08:00;10.35;;;3.88;;
43070;SDS011;36278;47.952;21.714;2022-08-21T15:10:26;6.65;;;4.05;;
43070;SDS011;36278;47.952;21.714;2022-08-21T15:12:52;9.50;;;4.40;;
43070;SDS011;36278;47.952;21.714;2022-08-21T15:15:18;8.07;;;3.75;;
43070;SDS011;36278;47.952;21.714;2022-08-21T15:17:44;15.30;;;3.92;;
43070;SDS011;36278;47.952;21.714;2022-08-21T15:20:09;9.32;;;4.00;;
43070;SDS011;36278;47.952;21.714;2022-08-21T15:22:35;8.00;;;3.83;;
43070;SDS011;36278;47.952;21.714;2022-08-21T15:25:00;9.90;;;4.20;;
43070;SDS011;36278;47.952;21.714;2022-08-21T15:27:26;10.75;;;5.28;;
43070;SDS011;36278;47.952;21.714;2022-08-21T15:29:52;7.05;;;3.75;;
43070;SDS011;36278;47.952;21.714;2022-08-21T15:32:20;13.73;;;4.50;;
43070;SDS011;36278;47.952;21.714;2022-08-21T15:34:48;8.77;;;4.00;;
43070;SDS011;36278;47.952;21.714;2022-08-21T15:37:15;9.25;;;4.03;;
43070;SDS011;36278;47.952;21.714;2022-08-21T15:39:41;9.60;;;4.85;;
43070;SDS011;36278;47.952;21.714;2022-08-21T15:42:06;12.07;;;4.20;;
43070;SDS011;36278;47.952;21.714;2022-08-21T15:44:32;7.20;;;3.85;;
43070;SDS011;36278;47.952;21.714;2022-08-21T15:46:58;10.00;;;4.22;;
43070;SDS011;36278;47.952;21.714;2022-08-21T15:49:24;9.82;;;3.47;;